sensor_id;sensor_type;location;lat;lon;timestamp;P1;durP1;ratioP1;P2;durP2;ratioP2
67108;SDS011;54027;50.786;7.058;2023-04-06T00:00:22;17.85;;;9.90;;
67108;SDS011;54027;50.786;7.058;2023-04-06T00:02:48;17.85;;;9.40;;
67108;SDS011;54027;50.786;7.058;2023-04-06T00:05:14;17.90;;;10.13;;
67108;SDS011;54027;50.786;7.058;2023-04-06T00:07:39;18.05;;;10.32;;
67108;SDS011;54027;50.786;7.058;2023-04-06T00:10:05;14.82;;;8.85;;
67108;SDS011;54027;50.786;7.058;2023-04-06T00:12:31;14.07;;;10.13;;
67108;SDS011;54027;50.786;7.058;2023-04-06T00:14:57;15.32;;;9.50;;
67108;SDS011;54027;50.786;7.058;2023-04-06T00:17:22;19.08;;;9.30;;
67108;SDS011;54027;50.786;7.058;2023-04-06T00:19:48;17.65;;;10.35;;
67108;SDS011;54027;50.786;7.058;2023-04-06T00:22:13;13.13;;;8.85;;
67108;SDS011;54027;50.786;7.058;2023-04-06T00:24:39;16.58;;;9.90;;
67108;SDS011;54027;50.786;7.058;2023-04-06T00:27:04;14.50;;;8.95;;
67108;SDS011;54027;50.786;7.058;2023-04-06T00:29:30;16.05;;;9.82;;
67108;SDS011;54027;50.786;7.058;2023-04-06T00:31:55;14.40;;;9.07;;
67108;SDS011;54027;50.786;7.058;2023-04-06T00:34:21;14.70;;;8.35;;
67108;SDS011;54027;50.786;7.058;2023-04-06T00:36:46;13.20;;;7.93;;
67108;SDS011;54027;50.786;7.058;2023-04-06T00:39:11;14.93;;;7.72;;
67108;SDS011;54027;50.786;7.058;2023-04-06T00:41:37;17.05;;;8.95;;
67108;SDS011;54027;50.786;7.058;2023-04-06T00:44:07;15.82;;;8.07;;
67108;SDS011;54027;50.786;7.058;2023-04-06T00:46:33;14.88;;;9.18;;
67108;SDS011;54027;50.786;7.058;2023-04-06T00:48:58;15.15;;;9.32;;
67108;SDS011;54027;50.786;7.058;2023-04-06T00:51:23;16.38;;;8.10;;
67108;SDS011;54027;50.786;7.058;2023-04-06T00:53:50;14.55;;;8.00;;
67108;SDS011;54027;50.786;7.058;2023-04-06T00:56:15;14.77;;;8.30;;
67108;SDS011;54027;50.786;7.058;2023-04-06T00:58:41;13.55;;;8.45;;
67108;SDS011;54027;50.786;7.058;2023-04-06T01:01:06;11.43;;;7.85;;
67108;SDS011;54027;50.786;7.058;2023-04-06T01:03:31;17.10;;;10.55;;
67108;SDS011;54027;50.786;7.058;2023-04-06T01:05:57;14.98;;;8.68;;
67108;SDS011;54027;50.786;7.058;2023-04-06T01:08:23;16.85;;;8.68;;
67108;SDS011;54027;50.786;7.058;2023-04-06T01:10:49;13.95;;;9.27;;
67108;SDS011;54027;50.786;7.058;2023-04-06T01:13:15;13.70;;;8.05;;
67108;SDS011;54027;50.786;7.058;2023-04-06T01:15:41;14.07;;;8.75;;
67108;SDS011;54027;50.786;7.058;2023-04-06T01:18:10;16.50;;;9.18;;
67108;SDS011;54027;50.786;7.058;2023-04-06T01:20:35;16.73;;;9.25;;
67108;SDS011;54027;50.786;7.058;2023-04-06T01:23:01;17.08;;;8.75;;
67108;SDS011;54027;50.786;7.058;2023-04-06T01:25:27;15.50;;;9.45;;
67108;SDS011;54027;50.786;7.058;2023-04-06T01:27:52;16.02;;;9.63;;
67108;SDS011;54027;50.786;7.058;2023-04-06T01:30:17;17.67;;;8.88;;
67108;SDS011;54027;50.786;7.058;2023-04-06T01:32:43;18.50;;;9.15;;
67108;SDS011;54027;50.786;7.058;2023-04-06T01:35:09;15.43;;;8.80;;
67108;SDS011;54027;50.786;7.058;2023-04-06T01:37:35;15.15;;;8.82;;
67108;SDS011;54027;50.786;7.058;2023-04-06T01:40:00;15.70;;;8.80;;
67108;SDS011;54027;50.786;7.058;2023-04-06T01:42:26;15.95;;;9.30;;
67108;SDS011;54027;50.786;7.058;2023-04-06T01:44:51;12.73;;;8.18;;
67108;SDS011;54027;50.786;7.058;2023-04-06T01:47:17;18.95;;;9.55;;
67108;SDS011;54027;50.786;7.058;2023-04-06T01:49:42;15.95;;;8.65;;
67108;SDS011;54027;50.786;7.058;2023-04-06T01:52:07;11.95;;;7.25;;
67108;SDS011;54027;50.786;7.058;2023-04-06T01:54:33;13.27;;;8.15;;
67108;SDS011;54027;50.786;7.058;2023-04-06T01:56:58;11.68;;;7.88;;
67108;SDS011;54027;50.786;7.058;2023-04-06T01:59:24;11.90;;;7.47;;
67108;SDS011;54027;50.786;7.058;2023-04-06T02:01:49;14.52;;;8.35;;
67108;SDS011;54027;50.786;7.058;2023-04-06T02:04:15;16.23;;;9.45;;
67108;SDS011;54027;50.786;7.058;2023-04-06T02:06:40;15.98;;;9.15;;
67108;SDS011;54027;50.786;7.058;2023-04-06T02:09:06;14.07;;;7.78;;
67108;SDS011;54027;50.786;7.058;2023-04-06T02:11:32;14.10;;;8.40;;
67108;SDS011;54027;50.786;7.058;2023-04-06T02:13:58;13.95;;;8.93;;
67108;SDS011;54027;50.786;7.058;2023-04-06T02:16:25;14.55;;;8.23;;
67108;SDS011;54027;50.786;7.058;2023-04-06T02:18:51;13.52;;;8.00;;
67108;SDS011;54027;50.786;7.058;2023-04-06T02:21:16;15.57;;;9.40;;
67108;SDS011;54027;50.786;7.058;2023-04-06T02:23:45;13.57;;;9.15;;
67108;SDS011;54027;50.786;7.058;2023-04-06T02:26:10;14.43;;;9.02;;
67108;SDS011;54027;50.786;7.058;2023-04-06T02:28:36;15.13;;;8.18;;
67108;SDS011;54027;50.786;7.058;2023-04-06T02:31:01;14.13;;;8.18;;
67108;SDS011;54027;50.786;7.058;2023-04-06T02:33:27;15.60;;;8.15;;
67108;SDS011;54027;50.786;7.058;2023-04-06T02:35:52;14.68;;;8.82;;
67108;SDS011;54027;50.786;7.058;2023-04-06T02:38:17;13.52;;;8.57;;
67108;SDS011;54027;50.786;7.058;2023-04-06T02:40:43;16.55;;;8.82;;
67108;SDS011;54027;50.786;7.058;2023-04-06T02:43:08;18.25;;;10.35;;
67108;SDS011;54027;50.786;7.058;2023-04-06T02:45:33;12.85;;;8.85;;
67108;SDS011;54027;50.786;7.058;2023-04-06T02:47:59;14.07;;;8.23;;
67108;SDS011;54027;50.786;7.058;2023-04-06T02:50:24;15.45;;;8.98;;
67108;SDS011;54027;50.786;7.058;2023-04-06T02:52:51;15.48;;;8.98;;
67108;SDS011;54027;50.786;7.058;2023-04-06T02:55:17;17.10;;;8.77;;
67108;SDS011;54027;50.786;7.058;2023-04-06T02:57:44;12.52;;;8.05;;
67108;SDS011;54027;50.786;7.058;2023-04-06T03:00:10;13.05;;;7.85;;
67108;SDS011;54027;50.786;7.058;2023-04-06T03:02:36;12.73;;;7.65;;
67108;SDS011;54027;50.786;7.058;2023-04-06T03:05:01;13.02;;;7.85;;
67108;SDS011;54027;50.786;7.058;2023-04-06T03:07:28;16.88;;;9.05;;
67108;SDS011;54027;50.786;7.058;2023-04-06T03:09:53;15.05;;;9.02;;
67108;SDS011;54027;50.786;7.058;2023-04-06T03:12:19;15.70;;;8.57;;
67108;SDS011;54027;50.786;7.058;2023-04-06T03:14:45;13.32;;;7.75;;
67108;SDS011;54027;50.786;7.058;2023-04-06T03:17:10;16.50;;;9.05;;
67108;SDS011;54027;50.786;7.058;2023-04-06T03:19:36;14.95;;;8.80;;
67108;SDS011;54027;50.786;7.058;2023-04-06T03:22:01;12.45;;;8.32;;
67108;SDS011;54027;50.786;7.058;2023-04-06T03:24:27;12.75;;;8.70;;
67108;SDS011;54027;50.786;7.058;2023-04-06T03:26:52;12.88;;;8.13;;
67108;SDS011;54027;50.786;7.058;2023-04-06T03:29:17;14.50;;;8.85;;
67108;SDS011;54027;50.786;7.058;2023-04-06T03:31:43;17.60;;;9.32;;
67108;SDS011;54027;50.786;7.058;2023-04-06T03:34:08;14.18;;;8.90;;
67108;SDS011;54027;50.786;7.058;2023-04-06T03:36:34;13.85;;;8.63;;
67108;SDS011;54027;50.786;7.058;2023-04-06T03:39:00;12.70;;;8.07;;
67108;SDS011;54027;50.786;7.058;2023-04-06T03:41:25;12.73;;;7.97;;
67108;SDS011;54027;50.786;7.058;2023-04-06T03:43:51;12.60;;;8.50;;
67108;SDS011;54027;50.786;7.058;2023-04-06T03:46:16;12.88;;;7.95;;
67108;SDS011;54027;50.786;7.058;2023-04-06T03:48:42;16.58;;;9.07;;
67108;SDS011;54027;50.786;7.058;2023-04-06T03:51:07;21.52;;;9.40;;
67108;SDS011;54027;50.786;7.058;2023-04-06T03:53:32;16.38;;;8.43;;
67108;SDS011;54027;50.786;7.058;2023-04-06T03:55:58;13.90;;;8.38;;
67108;SDS011;54027;50.786;7.058;2023-04-06T03:58:23;14.15;;;8.90;;
67108;SDS011;54027;50.786;7.058;2023-04-06T04:00:49;20.80;;;9.00;;
67108;SDS011;54027;50.786;7.058;2023-04-06T04:03:14;18.30;;;8.88;;
67108;SDS011;54027;50.786;7.058;2023-04-06T04:05:40;13.20;;;8.25;;
67108;SDS011;54027;50.786;7.058;2023-04-06T04:08:05;13.40;;;8.10;;
67108;SDS011;54027;50.786;7.058;2023-04-06T04:10:31;17.13;;;8.38;;
67108;SDS011;54027;50.786;7.058;2023-04-06T04:12:56;20.83;;;10.73;;
67108;SDS011;54027;50.786;7.058;2023-04-06T04:15:21;15.05;;;9.65;;
67108;SDS011;54027;50.786;7.058;2023-04-06T04:17:47;16.15;;;9.88;;
67108;SDS011;54027;50.786;7.058;2023-04-06T04:20:14;16.13;;;9.45;;
67108;SDS011;54027;50.786;7.058;2023-04-06T04:22:41;18.55;;;10.13;;
67108;SDS011;54027;50.786;7.058;2023-04-06T04:25:06;18.77;;;10.35;;
67108;SDS011;54027;50.786;7.058;2023-04-06T04:27:32;15.00;;;9.50;;
67108;SDS011;54027;50.786;7.058;2023-04-06T04:29:57;17.90;;;9.88;;
67108;SDS011;54027;50.786;7.058;2023-04-06T04:32:23;16.88;;;9.07;;
67108;SDS011;54027;50.786;7.058;2023-04-06T04:34:52;19.50;;;10.43;;
67108;SDS011;54027;50.786;7.058;2023-04-06T04:37:17;19.20;;;9.95;;
67108;SDS011;54027;50.786;7.058;2023-04-06T04:39:43;15.05;;;9.85;;
67108;SDS011;54027;50.786;7.058;2023-04-06T04:42:08;17.08;;;9.50;;
67108;SDS011;54027;50.786;7.058;2023-04-06T04:44:34;17.15;;;9.80;;
67108;SDS011;54027;50.786;7.058;2023-04-06T04:46:59;16.42;;;10.95;;
67108;SDS011;54027;50.786;7.058;2023-04-06T04:49:25;24.23;;;11.40;;
67108;SDS011;54027;50.786;7.058;2023-04-06T04:51:50;16.08;;;10.30;;
67108;SDS011;54027;50.786;7.058;2023-04-06T04:54:17;15.57;;;9.55;;
67108;SDS011;54027;50.786;7.058;2023-04-06T04:56:43;17.40;;;9.75;;
67108;SDS011;54027;50.786;7.058;2023-04-06T04:59:09;19.90;;;10.68;;
67108;SDS011;54027;50.786;7.058;2023-04-06T05:01:35;24.70;;;12.13;;
67108;SDS011;54027;50.786;7.058;2023-04-06T05:04:00;28.13;;;10.27;;
67108;SDS011;54027;50.786;7.058;2023-04-06T05:06:26;23.75;;;12.07;;
67108;SDS011;54027;50.786;7.058;2023-04-06T05:08:51;21.42;;;10.23;;
67108;SDS011;54027;50.786;7.058;2023-04-06T05:11:16;21.25;;;11.55;;
67108;SDS011;54027;50.786;7.058;2023-04-06T05:13:42;19.63;;;11.75;;
67108;SDS011;54027;50.786;7.058;2023-04-06T05:16:07;19.55;;;10.32;;
67108;SDS011;54027;50.786;7.058;2023-04-06T05:18:33;22.23;;;10.77;;
67108;SDS011;54027;50.786;7.058;2023-04-06T05:20:58;25.00;;;10.50;;
67108;SDS011;54027;50.786;7.058;2023-04-06T05:23:24;25.55;;;11.00;;
67108;SDS011;54027;50.786;7.058;2023-04-06T05:25:49;15.73;;;9.05;;
67108;SDS011;54027;50.786;7.058;2023-04-06T05:28:15;17.95;;;10.27;;
67108;SDS011;54027;50.786;7.058;2023-04-06T05:30:42;19.40;;;11.00;;
67108;SDS011;54027;50.786;7.058;2023-04-06T05:33:08;17.30;;;9.57;;
67108;SDS011;54027;50.786;7.058;2023-04-06T05:35:34;17.13;;;9.45;;
67108;SDS011;54027;50.786;7.058;2023-04-06T05:38:00;17.80;;;9.25;;
67108;SDS011;54027;50.786;7.058;2023-04-06T05:40:25;18.92;;;10.43;;
67108;SDS011;54027;50.786;7.058;2023-04-06T05:42:51;18.30;;;8.80;;
67108;SDS011;54027;50.786;7.058;2023-04-06T05:45:16;17.85;;;10.30;;
67108;SDS011;54027;50.786;7.058;2023-04-06T05:47:43;15.77;;;9.90;;
67108;SDS011;54027;50.786;7.058;2023-04-06T05:50:10;14.00;;;8.35;;
67108;SDS011;54027;50.786;7.058;2023-04-06T05:52:36;25.33;;;11.07;;
67108;SDS011;54027;50.786;7.058;2023-04-06T05:55:02;18.33;;;9.70;;
67108;SDS011;54027;50.786;7.058;2023-04-06T05:57:28;16.42;;;9.80;;
67108;SDS011;54027;50.786;7.058;2023-04-06T05:59:53;23.90;;;11.68;;
67108;SDS011;54027;50.786;7.058;2023-04-06T06:02:20;17.15;;;9.35;;
67108;SDS011;54027;50.786;7.058;2023-04-06T06:04:46;11.35;;;8.32;;
67108;SDS011;54027;50.786;7.058;2023-04-06T06:07:12;14.13;;;8.30;;
67108;SDS011;54027;50.786;7.058;2023-04-06T06:09:39;15.57;;;9.90;;
67108;SDS011;54027;50.786;7.058;2023-04-06T06:12:05;14.88;;;8.32;;
67108;SDS011;54027;50.786;7.058;2023-04-06T06:14:30;17.33;;;8.75;;
67108;SDS011;54027;50.786;7.058;2023-04-06T06:16:56;18.98;;;10.32;;
67108;SDS011;54027;50.786;7.058;2023-04-06T06:19:21;18.33;;;10.70;;
67108;SDS011;54027;50.786;7.058;2023-04-06T06:21:47;20.00;;;9.93;;
67108;SDS011;54027;50.786;7.058;2023-04-06T06:24:12;16.42;;;9.85;;
67108;SDS011;54027;50.786;7.058;2023-04-06T06:26:37;18.33;;;9.57;;
67108;SDS011;54027;50.786;7.058;2023-04-06T06:29:04;19.05;;;10.77;;
67108;SDS011;54027;50.786;7.058;2023-04-06T06:31:30;15.07;;;8.85;;
67108;SDS011;54027;50.786;7.058;2023-04-06T06:33:56;17.10;;;9.60;;
67108;SDS011;54027;50.786;7.058;2023-04-06T06:36:21;17.67;;;10.23;;
67108;SDS011;54027;50.786;7.058;2023-04-06T06:38:47;18.85;;;9.55;;
67108;SDS011;54027;50.786;7.058;2023-04-06T06:41:12;16.63;;;9.25;;
67108;SDS011;54027;50.786;7.058;2023-04-06T06:43:38;18.33;;;8.82;;
67108;SDS011;54027;50.786;7.058;2023-04-06T06:46:04;13.98;;;8.45;;
67108;SDS011;54027;50.786;7.058;2023-04-06T06:48:30;17.38;;;8.35;;
67108;SDS011;54027;50.786;7.058;2023-04-06T06:50:56;16.13;;;8.60;;
67108;SDS011;54027;50.786;7.058;2023-04-06T06:53:21;14.55;;;8.70;;
67108;SDS011;54027;50.786;7.058;2023-04-06T06:55:47;16.75;;;8.73;;
67108;SDS011;54027;50.786;7.058;2023-04-06T06:58:18;13.77;;;8.13;;
67108;SDS011;54027;50.786;7.058;2023-04-06T07:00:45;15.55;;;9.23;;
67108;SDS011;54027;50.786;7.058;2023-04-06T07:03:10;11.32;;;7.43;;
67108;SDS011;54027;50.786;7.058;2023-04-06T07:05:35;13.93;;;8.40;;
67108;SDS011;54027;50.786;7.058;2023-04-06T07:08:01;15.20;;;7.72;;
67108;SDS011;54027;50.786;7.058;2023-04-06T07:10:26;12.45;;;8.07;;
67108;SDS011;54027;50.786;7.058;2023-04-06T07:12:52;13.32;;;8.63;;
67108;SDS011;54027;50.786;7.058;2023-04-06T07:15:17;14.48;;;7.90;;
67108;SDS011;54027;50.786;7.058;2023-04-06T07:17:43;17.90;;;7.80;;
67108;SDS011;54027;50.786;7.058;2023-04-06T07:20:10;16.50;;;8.13;;
67108;SDS011;54027;50.786;7.058;2023-04-06T07:22:37;16.25;;;8.00;;
67108;SDS011;54027;50.786;7.058;2023-04-06T07:25:03;17.17;;;8.95;;
67108;SDS011;54027;50.786;7.058;2023-04-06T07:27:29;11.93;;;8.20;;
67108;SDS011;54027;50.786;7.058;2023-04-06T07:29:54;14.70;;;9.00;;
67108;SDS011;54027;50.786;7.058;2023-04-06T07:32:20;16.67;;;8.95;;
67108;SDS011;54027;50.786;7.058;2023-04-06T07:34:45;16.50;;;7.72;;
67108;SDS011;54027;50.786;7.058;2023-04-06T07:37:11;18.75;;;9.05;;
67108;SDS011;54027;50.786;7.058;2023-04-06T07:39:37;17.45;;;8.20;;
67108;SDS011;54027;50.786;7.058;2023-04-06T07:42:02;12.38;;;8.00;;
67108;SDS011;54027;50.786;7.058;2023-04-06T07:44:28;12.65;;;7.75;;
67108;SDS011;54027;50.786;7.058;2023-04-06T07:46:53;15.40;;;8.30;;
67108;SDS011;54027;50.786;7.058;2023-04-06T07:49:18;13.60;;;8.13;;
67108;SDS011;54027;50.786;7.058;2023-04-06T07:51:45;15.95;;;8.48;;
67108;SDS011;54027;50.786;7.058;2023-04-06T07:54:11;12.65;;;7.50;;
67108;SDS011;54027;50.786;7.058;2023-04-06T07:56:36;14.13;;;8.18;;
67108;SDS011;54027;50.786;7.058;2023-04-06T07:59:02;14.23;;;8.85;;
67108;SDS011;54027;50.786;7.058;2023-04-06T08:01:28;12.75;;;8.43;;
67108;SDS011;54027;50.786;7.058;2023-04-06T08:03:53;14.55;;;8.55;;
67108;SDS011;54027;50.786;7.058;2023-04-06T08:06:20;12.40;;;7.65;;
67108;SDS011;54027;50.786;7.058;2023-04-06T08:08:46;12.85;;;8.35;;
67108;SDS011;54027;50.786;7.058;2023-04-06T08:11:11;14.77;;;8.23;;
67108;SDS011;54027;50.786;7.058;2023-04-06T08:13:37;14.13;;;8.32;;
67108;SDS011;54027;50.786;7.058;2023-04-06T08:16:02;17.85;;;8.48;;
67108;SDS011;54027;50.786;7.058;2023-04-06T08:18:28;12.05;;;7.95;;
67108;SDS011;54027;50.786;7.058;2023-04-06T08:20:55;13.90;;;7.90;;
67108;SDS011;54027;50.786;7.058;2023-04-06T08:23:20;23.63;;;9.40;;
67108;SDS011;54027;50.786;7.058;2023-04-06T08:25:46;12.13;;;8.13;;
67108;SDS011;54027;50.786;7.058;2023-04-06T08:28:12;16.27;;;8.77;;
67108;SDS011;54027;50.786;7.058;2023-04-06T08:30:40;12.27;;;8.40;;
67108;SDS011;54027;50.786;7.058;2023-04-06T08:33:06;14.15;;;8.38;;
67108;SDS011;54027;50.786;7.058;2023-04-06T08:35:32;16.13;;;8.73;;
67108;SDS011;54027;50.786;7.058;2023-04-06T08:37:57;14.18;;;7.90;;
67108;SDS011;54027;50.786;7.058;2023-04-06T08:40:23;13.35;;;8.35;;
67108;SDS011;54027;50.786;7.058;2023-04-06T08:42:55;15.15;;;8.93;;
67108;SDS011;54027;50.786;7.058;2023-04-06T08:45:21;15.35;;;8.90;;
67108;SDS011;54027;50.786;7.058;2023-04-06T08:47:50;17.27;;;9.07;;
67108;SDS011;54027;50.786;7.058;2023-04-06T08:50:17;20.75;;;8.80;;
67108;SDS011;54027;50.786;7.058;2023-04-06T08:52:44;15.25;;;9.18;;
67108;SDS011;54027;50.786;7.058;2023-04-06T08:55:12;15.55;;;8.70;;
67108;SDS011;54027;50.786;7.058;2023-04-06T08:57:37;17.55;;;8.95;;
67108;SDS011;54027;50.786;7.058;2023-04-06T09:00:04;16.92;;;8.93;;
67108;SDS011;54027;50.786;7.058;2023-04-06T09:02:31;13.77;;;8.27;;
67108;SDS011;54027;50.786;7.058;2023-04-06T09:04:57;18.23;;;9.07;;
67108;SDS011;54027;50.786;7.058;2023-04-06T09:07:23;17.98;;;9.00;;
67108;SDS011;54027;50.786;7.058;2023-04-06T09:09:49;15.65;;;9.20;;
67108;SDS011;54027;50.786;7.058;2023-04-06T09:12:29;16.20;;;8.82;;
67108;SDS011;54027;50.786;7.058;2023-04-06T09:14:56;14.10;;;9.38;;
67108;SDS011;54027;50.786;7.058;2023-04-06T09:17:22;15.40;;;9.30;;
67108;SDS011;54027;50.786;7.058;2023-04-06T09:19:49;16.75;;;9.15;;
67108;SDS011;54027;50.786;7.058;2023-04-06T09:22:15;12.23;;;8.50;;
67108;SDS011;54027;50.786;7.058;2023-04-06T09:27:31;13.85;;;8.23;;
67108;SDS011;54027;50.786;7.058;2023-04-06T09:30:04;17.95;;;9.00;;
67108;SDS011;54027;50.786;7.058;2023-04-06T09:32:30;14.07;;;8.00;;
67108;SDS011;54027;50.786;7.058;2023-04-06T09:35:06;16.80;;;8.93;;
67108;SDS011;54027;50.786;7.058;2023-04-06T09:37:32;15.57;;;9.68;;
67108;SDS011;54027;50.786;7.058;2023-04-06T09:40:04;21.35;;;9.73;;
67108;SDS011;54027;50.786;7.058;2023-04-06T09:42:32;18.60;;;9.63;;
67108;SDS011;54027;50.786;7.058;2023-04-06T09:44:57;17.83;;;9.30;;
67108;SDS011;54027;50.786;7.058;2023-04-06T09:47:23;18.80;;;9.60;;
67108;SDS011;54027;50.786;7.058;2023-04-06T09:49:50;17.08;;;9.57;;
67108;SDS011;54027;50.786;7.058;2023-04-06T09:52:24;18.05;;;8.95;;
67108;SDS011;54027;50.786;7.058;2023-04-06T09:55:11;15.93;;;10.35;;
67108;SDS011;54027;50.786;7.058;2023-04-06T10:00:15;15.93;;;9.32;;
67108;SDS011;54027;50.786;7.058;2023-04-06T10:05:42;19.55;;;9.38;;
67108;SDS011;54027;50.786;7.058;2023-04-06T10:08:15;17.75;;;9.82;;
67108;SDS011;54027;50.786;7.058;2023-04-06T10:10:41;19.17;;;10.27;;
67108;SDS011;54027;50.786;7.058;2023-04-06T10:13:08;17.55;;;9.52;;
67108;SDS011;54027;50.786;7.058;2023-04-06T10:15:36;20.15;;;9.77;;
67108;SDS011;54027;50.786;7.058;2023-04-06T10:18:03;17.30;;;10.45;;
67108;SDS011;54027;50.786;7.058;2023-04-06T10:23:15;17.30;;;10.35;;
67108;SDS011;54027;50.786;7.058;2023-04-06T10:26:22;18.02;;;9.82;;
67108;SDS011;54027;50.786;7.058;2023-04-06T10:28:48;21.00;;;10.13;;
67108;SDS011;54027;50.786;7.058;2023-04-06T10:31:14;19.40;;;10.15;;
67108;SDS011;54027;50.786;7.058;2023-04-06T10:33:40;20.58;;;10.73;;
67108;SDS011;54027;50.786;7.058;2023-04-06T10:38:39;18.45;;;11.20;;
67108;SDS011;54027;50.786;7.058;2023-04-06T10:41:09;24.50;;;11.82;;
67108;SDS011;54027;50.786;7.058;2023-04-06T10:43:37;21.55;;;11.10;;
67108;SDS011;54027;50.786;7.058;2023-04-06T10:46:04;20.67;;;11.20;;
67108;SDS011;54027;50.786;7.058;2023-04-06T10:53:38;22.30;;;10.73;;
67108;SDS011;54027;50.786;7.058;2023-04-06T10:56:10;25.15;;;10.43;;
67108;SDS011;54027;50.786;7.058;2023-04-06T10:58:45;19.83;;;11.57;;
67108;SDS011;54027;50.786;7.058;2023-04-06T11:01:12;18.75;;;10.57;;
67108;SDS011;54027;50.786;7.058;2023-04-06T11:03:46;17.42;;;10.55;;
67108;SDS011;54027;50.786;7.058;2023-04-06T11:06:22;22.10;;;12.57;;
67108;SDS011;54027;50.786;7.058;2023-04-06T11:08:54;21.63;;;11.32;;
67108;SDS011;54027;50.786;7.058;2023-04-06T11:11:20;20.20;;;10.93;;
67108;SDS011;54027;50.786;7.058;2023-04-06T11:24:17;18.35;;;10.95;;
67108;SDS011;54027;50.786;7.058;2023-04-06T11:29:14;19.20;;;11.65;;
67108;SDS011;54027;50.786;7.058;2023-04-06T11:31:42;23.45;;;12.60;;
67108;SDS011;54027;50.786;7.058;2023-04-06T11:34:15;21.17;;;11.63;;
67108;SDS011;54027;50.786;7.058;2023-04-06T11:36:42;18.05;;;11.32;;
67108;SDS011;54027;50.786;7.058;2023-04-06T11:39:09;19.13;;;10.63;;
67108;SDS011;54027;50.786;7.058;2023-04-06T11:41:35;20.20;;;11.38;;
67108;SDS011;54027;50.786;7.058;2023-04-06T11:44:01;20.63;;;11.82;;
67108;SDS011;54027;50.786;7.058;2023-04-06T11:46:27;19.90;;;10.80;;
67108;SDS011;54027;50.786;7.058;2023-04-06T11:48:53;17.45;;;10.75;;
67108;SDS011;54027;50.786;7.058;2023-04-06T11:51:23;16.42;;;10.10;;
67108;SDS011;54027;50.786;7.058;2023-04-06T11:53:49;16.52;;;10.35;;
67108;SDS011;54027;50.786;7.058;2023-04-06T11:56:24;15.73;;;9.50;;
67108;SDS011;54027;50.786;7.058;2023-04-06T11:58:54;19.40;;;10.23;;
67108;SDS011;54027;50.786;7.058;2023-04-06T12:01:27;21.25;;;10.05;;
67108;SDS011;54027;50.786;7.058;2023-04-06T12:03:53;18.27;;;10.35;;
67108;SDS011;54027;50.786;7.058;2023-04-06T12:06:19;16.00;;;9.82;;
67108;SDS011;54027;50.786;7.058;2023-04-06T12:08:44;17.25;;;10.38;;
67108;SDS011;54027;50.786;7.058;2023-04-06T12:11:10;15.48;;;9.50;;
67108;SDS011;54027;50.786;7.058;2023-04-06T12:13:36;18.02;;;10.80;;
67108;SDS011;54027;50.786;7.058;2023-04-06T12:16:02;15.10;;;9.10;;
67108;SDS011;54027;50.786;7.058;2023-04-06T12:18:27;14.23;;;9.30;;
67108;SDS011;54027;50.786;7.058;2023-04-06T12:20:53;20.40;;;9.68;;
67108;SDS011;54027;50.786;7.058;2023-04-06T12:23:19;18.83;;;8.88;;
67108;SDS011;54027;50.786;7.058;2023-04-06T12:25:44;16.17;;;9.20;;
67108;SDS011;54027;50.786;7.058;2023-04-06T12:28:10;18.90;;;10.15;;
67108;SDS011;54027;50.786;7.058;2023-04-06T12:30:36;16.60;;;9.68;;
67108;SDS011;54027;50.786;7.058;2023-04-06T12:33:01;17.45;;;10.10;;
67108;SDS011;54027;50.786;7.058;2023-04-06T12:35:27;14.25;;;9.23;;
67108;SDS011;54027;50.786;7.058;2023-04-06T12:37:52;12.13;;;8.48;;
67108;SDS011;54027;50.786;7.058;2023-04-06T12:40:18;16.42;;;9.65;;
67108;SDS011;54027;50.786;7.058;2023-04-06T12:42:43;14.75;;;9.40;;
67108;SDS011;54027;50.786;7.058;2023-04-06T12:45:10;18.27;;;9.32;;
67108;SDS011;54027;50.786;7.058;2023-04-06T12:47:36;15.27;;;9.05;;
67108;SDS011;54027;50.786;7.058;2023-04-06T12:50:02;14.63;;;8.75;;
67108;SDS011;54027;50.786;7.058;2023-04-06T12:52:29;13.90;;;9.50;;
67108;SDS011;54027;50.786;7.058;2023-04-06T12:54:56;16.70;;;9.00;;
67108;SDS011;54027;50.786;7.058;2023-04-06T12:57:22;14.25;;;8.93;;
67108;SDS011;54027;50.786;7.058;2023-04-06T12:59:47;14.98;;;8.82;;
67108;SDS011;54027;50.786;7.058;2023-04-06T13:02:13;13.50;;;8.27;;
67108;SDS011;54027;50.786;7.058;2023-04-06T13:04:38;13.63;;;8.63;;
67108;SDS011;54027;50.786;7.058;2023-04-06T13:07:04;15.80;;;8.15;;
67108;SDS011;54027;50.786;7.058;2023-04-06T13:09:30;14.25;;;7.63;;
67108;SDS011;54027;50.786;7.058;2023-04-06T13:11:55;12.93;;;8.32;;
67108;SDS011;54027;50.786;7.058;2023-04-06T13:14:21;13.52;;;8.23;;
67108;SDS011;54027;50.786;7.058;2023-04-06T13:16:47;16.05;;;8.40;;
67108;SDS011;54027;50.786;7.058;2023-04-06T13:19:12;12.45;;;7.72;;
67108;SDS011;54027;50.786;7.058;2023-04-06T13:21:38;12.18;;;7.78;;
67108;SDS011;54027;50.786;7.058;2023-04-06T13:24:04;12.10;;;7.82;;
67108;SDS011;54027;50.786;7.058;2023-04-06T13:26:30;13.40;;;7.60;;
67108;SDS011;54027;50.786;7.058;2023-04-06T13:28:56;12.77;;;6.50;;
67108;SDS011;54027;50.786;7.058;2023-04-06T13:31:21;10.07;;;5.65;;
67108;SDS011;54027;50.786;7.058;2023-04-06T13:33:47;9.25;;;5.25;;
67108;SDS011;54027;50.786;7.058;2023-04-06T13:36:12;13.60;;;5.93;;
67108;SDS011;54027;50.786;7.058;2023-04-06T13:38:38;8.27;;;5.70;;
67108;SDS011;54027;50.786;7.058;2023-04-06T13:41:04;9.05;;;5.38;;
67108;SDS011;54027;50.786;7.058;2023-04-06T13:43:30;10.18;;;5.82;;
67108;SDS011;54027;50.786;7.058;2023-04-06T13:45:57;18.88;;;7.35;;
67108;SDS011;54027;50.786;7.058;2023-04-06T13:48:24;11.50;;;7.28;;
67108;SDS011;54027;50.786;7.058;2023-04-06T13:50:51;11.68;;;6.90;;
67108;SDS011;54027;50.786;7.058;2023-04-06T13:53:17;12.57;;;6.85;;
67108;SDS011;54027;50.786;7.058;2023-04-06T13:55:42;12.00;;;7.07;;
67108;SDS011;54027;50.786;7.058;2023-04-06T13:58:08;11.35;;;6.70;;
67108;SDS011;54027;50.786;7.058;2023-04-06T14:00:34;10.88;;;7.50;;
67108;SDS011;54027;50.786;7.058;2023-04-06T14:03:00;13.48;;;7.78;;
67108;SDS011;54027;50.786;7.058;2023-04-06T14:05:26;12.52;;;8.25;;
67108;SDS011;54027;50.786;7.058;2023-04-06T14:07:52;12.75;;;7.85;;
67108;SDS011;54027;50.786;7.058;2023-04-06T14:10:19;23.75;;;18.73;;
67108;SDS011;54027;50.786;7.058;2023-04-06T14:12:46;11.20;;;7.53;;
67108;SDS011;54027;50.786;7.058;2023-04-06T14:15:12;11.23;;;7.60;;
67108;SDS011;54027;50.786;7.058;2023-04-06T14:17:37;12.98;;;7.25;;
67108;SDS011;54027;50.786;7.058;2023-04-06T14:20:04;10.20;;;7.05;;
67108;SDS011;54027;50.786;7.058;2023-04-06T14:22:31;13.88;;;7.82;;
67108;SDS011;54027;50.786;7.058;2023-04-06T14:24:56;12.70;;;7.63;;
67108;SDS011;54027;50.786;7.058;2023-04-06T14:27:22;15.45;;;8.30;;
67108;SDS011;54027;50.786;7.058;2023-04-06T14:29:48;14.68;;;8.32;;
67108;SDS011;54027;50.786;7.058;2023-04-06T14:32:13;13.43;;;8.55;;
67108;SDS011;54027;50.786;7.058;2023-04-06T14:34:39;13.73;;;8.55;;
67108;SDS011;54027;50.786;7.058;2023-04-06T14:37:04;14.38;;;7.70;;
67108;SDS011;54027;50.786;7.058;2023-04-06T14:39:30;11.88;;;7.85;;
67108;SDS011;54027;50.786;7.058;2023-04-06T14:41:55;12.45;;;7.70;;
67108;SDS011;54027;50.786;7.058;2023-04-06T14:44:21;12.95;;;7.68;;
67108;SDS011;54027;50.786;7.058;2023-04-06T14:46:46;14.75;;;8.63;;
67108;SDS011;54027;50.786;7.058;2023-04-06T14:49:11;13.60;;;8.10;;
67108;SDS011;54027;50.786;7.058;2023-04-06T14:51:37;13.80;;;8.30;;
67108;SDS011;54027;50.786;7.058;2023-04-06T14:54:03;11.27;;;6.65;;
67108;SDS011;54027;50.786;7.058;2023-04-06T14:56:28;10.13;;;6.18;;